sensor_id;sensor_type;location;lat;lon;timestamp;P1;durP1;ratioP1;P2;durP2;ratioP2
63699;SDS011;49845;47.130;142.766;2024-02-21T00:02:08;5.72;;;1.83;;
63699;SDS011;49845;47.130;142.766;2024-02-21T00:04:38;4.43;;;2.00;;
63699;SDS011;49845;47.130;142.766;2024-02-21T00:07:09;2.50;;;1.90;;
63699;SDS011;49845;47.130;142.766;2024-02-21T00:09:41;4.50;;;2.00;;
63699;SDS011;49845;47.130;142.766;2024-02-21T00:12:11;4.93;;;1.70;;
63699;SDS011;49845;47.130;142.766;2024-02-21T00:14:43;5.28;;;2.05;;
63699;SDS011;49845;47.130;142.766;2024-02-21T00:17:13;6.68;;;2.30;;
63699;SDS011;49845;47.130;142.766;2024-02-21T00:19:44;4.63;;;2.00;;
63699;SDS011;49845;47.130;142.766;2024-02-21T00:22:14;4.03;;;1.85;;
63699;SDS011;49845;47.130;142.766;2024-02-21T00:24:47;6.60;;;1.90;;
63699;SDS011;49845;47.130;142.766;2024-02-21T00:27:17;7.25;;;1.80;;
63699;SDS011;49845;47.130;142.766;2024-02-21T00:29:47;3.25;;;1.85;;
63699;SDS011;49845;47.130;142.766;2024-02-21T00:32:18;4.75;;;1.70;;
63699;SDS011;49845;47.130;142.766;2024-02-21T00:34:48;3.78;;;1.92;;
63699;SDS011;49845;47.130;142.766;2024-02-21T00:37:19;4.85;;;2.03;;
63699;SDS011;49845;47.130;142.766;2024-02-21T00:39:51;6.35;;;2.13;;
63699;SDS011;49845;47.130;142.766;2024-02-21T00:42:21;5.55;;;1.85;;
63699;SDS011;49845;47.130;142.766;2024-02-21T00:44:52;3.80;;;1.65;;
63699;SDS011;49845;47.130;142.766;2024-02-21T00:47:22;3.70;;;2.00;;
63699;SDS011;49845;47.130;142.766;2024-02-21T00:49:53;5.97;;;2.17;;
63699;SDS011;49845;47.130;142.766;2024-02-21T00:52:23;6.95;;;2.35;;
63699;SDS011;49845;47.130;142.766;2024-02-21T00:54:55;5.93;;;1.65;;
63699;SDS011;49845;47.130;142.766;2024-02-21T00:57:26;6.10;;;1.80;;
63699;SDS011;49845;47.130;142.766;2024-02-21T00:59:56;8.57;;;2.00;;
63699;SDS011;49845;47.130;142.766;2024-02-21T01:02:27;6.78;;;2.00;;
63699;SDS011;49845;47.130;142.766;2024-02-21T01:04:58;3.55;;;1.70;;
63699;SDS011;49845;47.130;142.766;2024-02-21T01:07:29;3.67;;;2.20;;
63699;SDS011;49845;47.130;142.766;2024-02-21T01:10:01;5.00;;;2.05;;
63699;SDS011;49845;47.130;142.766;2024-02-21T01:12:32;6.03;;;2.08;;
63699;SDS011;49845;47.130;142.766;2024-02-21T01:15:03;8.40;;;2.38;;
63699;SDS011;49845;47.130;142.766;2024-02-21T01:17:34;4.15;;;1.90;;
63699;SDS011;49845;47.130;142.766;2024-02-21T01:20:05;3.42;;;1.98;;
63699;SDS011;49845;47.130;142.766;2024-02-21T01:22:36;7.00;;;1.92;;
63699;SDS011;49845;47.130;142.766;2024-02-21T01:25:09;3.40;;;1.80;;
63699;SDS011;49845;47.130;142.766;2024-02-21T01:27:39;3.67;;;2.20;;
63699;SDS011;49845;47.130;142.766;2024-02-21T01:30:10;5.50;;;2.00;;
63699;SDS011;49845;47.130;142.766;2024-02-21T01:32:41;8.52;;;2.20;;
63699;SDS011;49845;47.130;142.766;2024-02-21T01:35:12;3.35;;;1.95;;
63699;SDS011;49845;47.130;142.766;2024-02-21T01:37:42;8.88;;;1.75;;
63699;SDS011;49845;47.130;142.766;2024-02-21T01:40:15;5.10;;;1.92;;
63699;SDS011;49845;47.130;142.766;2024-02-21T01:42:45;4.72;;;1.80;;
63699;SDS011;49845;47.130;142.766;2024-02-21T01:45:16;3.35;;;1.70;;
63699;SDS011;49845;47.130;142.766;2024-02-21T01:47:47;5.43;;;2.08;;
63699;SDS011;49845;47.130;142.766;2024-02-21T01:50:18;3.63;;;2.13;;
63699;SDS011;49845;47.130;142.766;2024-02-21T01:52:51;4.90;;;1.95;;
63699;SDS011;49845;47.130;142.766;2024-02-21T01:55:24;7.53;;;1.77;;
63699;SDS011;49845;47.130;142.766;2024-02-21T01:57:54;5.53;;;2.10;;
63699;SDS011;49845;47.130;142.766;2024-02-21T02:00:25;3.55;;;2.08;;
63699;SDS011;49845;47.130;142.766;2024-02-21T02:02:56;5.40;;;1.95;;
63699;SDS011;49845;47.130;142.766;2024-02-21T02:05:27;4.38;;;1.98;;
63699;SDS011;49845;47.130;142.766;2024-02-21T02:07:58;4.85;;;2.03;;
63699;SDS011;49845;47.130;142.766;2024-02-21T02:10:30;5.00;;;2.10;;
63699;SDS011;49845;47.130;142.766;2024-02-21T02:13:01;4.90;;;1.92;;
63699;SDS011;49845;47.130;142.766;2024-02-21T02:15:37;5.28;;;1.80;;
63699;SDS011;49845;47.130;142.766;2024-02-21T02:18:08;5.50;;;2.10;;
63699;SDS011;49845;47.130;142.766;2024-02-21T02:20:39;3.33;;;2.10;;
63699;SDS011;49845;47.130;142.766;2024-02-21T02:23:10;3.88;;;1.90;;
63699;SDS011;49845;47.130;142.766;2024-02-21T02:25:43;4.72;;;2.05;;
63699;SDS011;49845;47.130;142.766;2024-02-21T02:28:16;6.03;;;1.90;;
63699;SDS011;49845;47.130;142.766;2024-02-21T02:31:04;4.75;;;1.92;;
63699;SDS011;49845;47.130;142.766;2024-02-21T02:33:52;5.15;;;1.90;;
63699;SDS011;49845;47.130;142.766;2024-02-21T02:36:39;5.45;;;1.88;;
63699;SDS011;49845;47.130;142.766;2024-02-21T02:39:26;3.65;;;1.63;;
63699;SDS011;49845;47.130;142.766;2024-02-21T02:42:15;3.88;;;1.80;;
63699;SDS011;49845;47.130;142.766;2024-02-21T02:45:02;3.95;;;2.28;;
63699;SDS011;49845;47.130;142.766;2024-02-21T02:47:33;3.22;;;1.65;;
63699;SDS011;49845;47.130;142.766;2024-02-21T02:50:04;3.72;;;1.70;;
63699;SDS011;49845;47.130;142.766;2024-02-21T02:52:35;4.82;;;1.75;;
63699;SDS011;49845;47.130;142.766;2024-02-21T02:55:06;5.65;;;1.92;;
63699;SDS011;49845;47.130;142.766;2024-02-21T02:57:39;3.75;;;2.58;;
63699;SDS011;49845;47.130;142.766;2024-02-21T03:00:10;3.85;;;1.80;;
63699;SDS011;49845;47.130;142.766;2024-02-21T03:02:43;4.32;;;1.90;;
63699;SDS011;49845;47.130;142.766;2024-02-21T03:05:16;3.28;;;1.75;;
63699;SDS011;49845;47.130;142.766;2024-02-21T03:07:47;4.05;;;2.42;;
63699;SDS011;49845;47.130;142.766;2024-02-21T03:10:18;2.38;;;1.73;;
63699;SDS011;49845;47.130;142.766;2024-02-21T03:12:50;4.25;;;2.00;;
63699;SDS011;49845;47.130;142.766;2024-02-21T03:15:21;5.07;;;1.67;;
63699;SDS011;49845;47.130;142.766;2024-02-21T03:17:52;1.95;;;1.70;;
63699;SDS011;49845;47.130;142.766;2024-02-21T03:20:22;3.13;;;1.67;;
63699;SDS011;49845;47.130;142.766;2024-02-21T03:22:52;6.38;;;2.00;;
63699;SDS011;49845;47.130;142.766;2024-02-21T03:25:23;7.88;;;2.00;;
63699;SDS011;49845;47.130;142.766;2024-02-21T03:27:55;1.98;;;1.65;;
63699;SDS011;49845;47.130;142.766;2024-02-21T03:30:26;3.03;;;2.05;;
63699;SDS011;49845;47.130;142.766;2024-02-21T03:32:56;3.72;;;1.90;;
63699;SDS011;49845;47.130;142.766;2024-02-21T03:35:27;3.22;;;1.83;;
63699;SDS011;49845;47.130;142.766;2024-02-21T03:37:57;3.45;;;1.70;;
63699;SDS011;49845;47.130;142.766;2024-02-21T03:40:28;1.85;;;1.67;;
63699;SDS011;49845;47.130;142.766;2024-02-21T03:43:00;3.78;;;1.70;;
63699;SDS011;49845;47.130;142.766;2024-02-21T03:45:31;3.25;;;1.50;;
63699;SDS011;49845;47.130;142.766;2024-02-21T03:48:01;2.67;;;1.83;;
63699;SDS011;49845;47.130;142.766;2024-02-21T03:50:32;3.25;;;1.50;;
63699;SDS011;49845;47.130;142.766;2024-02-21T03:53:03;3.15;;;1.85;;
63699;SDS011;49845;47.130;142.766;2024-02-21T03:55:34;2.50;;;1.90;;
63699;SDS011;49845;47.130;142.766;2024-02-21T03:58:06;2.75;;;1.77;;
63699;SDS011;49845;47.130;142.766;2024-02-21T04:00:36;4.72;;;1.88;;
63699;SDS011;49845;47.130;142.766;2024-02-21T04:03:07;1.77;;;1.60;;
63699;SDS011;49845;47.130;142.766;2024-02-21T04:05:38;3.10;;;1.83;;
63699;SDS011;49845;47.130;142.766;2024-02-21T04:08:08;2.47;;;1.60;;
63699;SDS011;49845;47.130;142.766;2024-02-21T04:10:39;2.72;;;1.83;;
63699;SDS011;49845;47.130;142.766;2024-02-21T04:13:11;2.13;;;1.85;;
63699;SDS011;49845;47.130;142.766;2024-02-21T04:15:41;4.47;;;2.15;;
63699;SDS011;49845;47.130;142.766;2024-02-21T04:18:12;2.00;;;1.80;;
63699;SDS011;49845;47.130;142.766;2024-02-21T04:20:43;3.33;;;1.98;;
63699;SDS011;49845;47.130;142.766;2024-02-21T04:23:13;2.30;;;2.00;;
63699;SDS011;49845;47.130;142.766;2024-02-21T04:25:44;2.50;;;1.90;;
63699;SDS011;49845;47.130;142.766;2024-02-21T04:28:16;2.58;;;1.88;;
63699;SDS011;49845;47.130;142.766;2024-02-21T04:30:46;2.50;;;2.08;;
63699;SDS011;49845;47.130;142.766;2024-02-21T04:33:17;2.78;;;1.98;;
63699;SDS011;49845;47.130;142.766;2024-02-21T04:35:47;4.90;;;2.60;;
63699;SDS011;49845;47.130;142.766;2024-02-21T04:38:19;6.55;;;2.00;;
63699;SDS011;49845;47.130;142.766;2024-02-21T04:40:50;3.35;;;2.10;;
63699;SDS011;49845;47.130;142.766;2024-02-21T04:43:22;3.08;;;2.00;;
63699;SDS011;49845;47.130;142.766;2024-02-21T04:45:53;3.42;;;2.05;;
63699;SDS011;49845;47.130;142.766;2024-02-21T04:48:23;2.90;;;1.90;;
63699;SDS011;49845;47.130;142.766;2024-02-21T04:50:54;2.25;;;1.80;;
63699;SDS011;49845;47.130;142.766;2024-02-21T04:53:24;2.72;;;2.00;;
63699;SDS011;49845;47.130;142.766;2024-02-21T04:55:55;5.43;;;1.83;;
63699;SDS011;49845;47.130;142.766;2024-02-21T04:58:27;2.72;;;1.83;;
63699;SDS011;49845;47.130;142.766;2024-02-21T05:00:58;2.55;;;1.88;;
63699;SDS011;49845;47.130;142.766;2024-02-21T05:03:28;3.97;;;1.90;;
63699;SDS011;49845;47.130;142.766;2024-02-21T05:05:59;3.25;;;2.00;;
63699;SDS011;49845;47.130;142.766;2024-02-21T05:08:30;3.53;;;2.00;;
63699;SDS011;49845;47.130;142.766;2024-02-21T05:11:00;4.43;;;2.00;;
63699;SDS011;49845;47.130;142.766;2024-02-21T05:13:33;4.10;;;2.28;;
63699;SDS011;49845;47.130;142.766;2024-02-21T05:16:04;2.90;;;2.08;;
63699;SDS011;49845;47.130;142.766;2024-02-21T05:18:35;3.03;;;2.00;;
63699;SDS011;49845;47.130;142.766;2024-02-21T05:21:05;4.75;;;2.30;;
63699;SDS011;49845;47.130;142.766;2024-02-21T05:23:36;4.72;;;1.88;;
63699;SDS011;49845;47.130;142.766;2024-02-21T05:26:07;3.72;;;2.10;;
63699;SDS011;49845;47.130;142.766;2024-02-21T05:28:39;5.07;;;2.55;;
63699;SDS011;49845;47.130;142.766;2024-02-21T05:31:09;2.97;;;2.00;;
63699;SDS011;49845;47.130;142.766;2024-02-21T05:33:43;2.58;;;1.98;;
63699;SDS011;49845;47.130;142.766;2024-02-21T05:36:14;9.93;;;2.03;;
63699;SDS011;49845;47.130;142.766;2024-02-21T05:38:45;4.43;;;2.30;;
63699;SDS011;49845;47.130;142.766;2024-02-21T05:41:15;3.35;;;2.00;;
63699;SDS011;49845;47.130;142.766;2024-02-21T05:43:47;2.38;;;2.15;;
63699;SDS011;49845;47.130;142.766;2024-02-21T05:46:19;4.60;;;1.88;;
63699;SDS011;49845;47.130;142.766;2024-02-21T05:48:49;3.22;;;1.90;;
63699;SDS011;49845;47.130;142.766;2024-02-21T05:51:20;5.70;;;2.08;;
63699;SDS011;49845;47.130;142.766;2024-02-21T05:53:51;4.20;;;2.00;;
63699;SDS011;49845;47.130;142.766;2024-02-21T05:56:21;2.95;;;1.95;;
63699;SDS011;49845;47.130;142.766;2024-02-21T05:58:53;4.20;;;1.90;;
63699;SDS011;49845;47.130;142.766;2024-02-21T06:01:24;2.45;;;1.90;;
63699;SDS011;49845;47.130;142.766;2024-02-21T06:03:55;2.92;;;2.20;;
63699;SDS011;49845;47.130;142.766;2024-02-21T06:06:26;2.80;;;1.65;;
63699;SDS011;49845;47.130;142.766;2024-02-21T06:08:56;2.50;;;1.73;;
63699;SDS011;49845;47.130;142.766;2024-02-21T06:11:27;2.30;;;1.70;;
63699;SDS011;49845;47.130;142.766;2024-02-21T06:13:59;8.05;;;2.00;;
63699;SDS011;49845;47.130;142.766;2024-02-21T06:16:30;4.20;;;1.80;;
63699;SDS011;49845;47.130;142.766;2024-02-21T06:19:01;4.35;;;2.10;;
63699;SDS011;49845;47.130;142.766;2024-02-21T06:21:35;4.28;;;1.80;;
63699;SDS011;49845;47.130;142.766;2024-02-21T06:24:06;2.70;;;1.70;;
63699;SDS011;49845;47.130;142.766;2024-02-21T06:26:36;5.78;;;2.03;;
63699;SDS011;49845;47.130;142.766;2024-02-21T06:29:09;2.78;;;1.90;;
63699;SDS011;49845;47.130;142.766;2024-02-21T06:31:41;4.38;;;1.80;;
63699;SDS011;49845;47.130;142.766;2024-02-21T06:34:11;2.20;;;1.70;;
63699;SDS011;49845;47.130;142.766;2024-02-21T06:36:42;6.45;;;2.70;;
63699;SDS011;49845;47.130;142.766;2024-02-21T06:39:14;15.55;;;6.45;;
63699;SDS011;49845;47.130;142.766;2024-02-21T06:41:44;23.35;;;11.27;;
63699;SDS011;49845;47.130;142.766;2024-02-21T06:44:17;57.15;;;18.60;;
63699;SDS011;49845;47.130;142.766;2024-02-21T06:46:47;61.90;;;20.38;;
63699;SDS011;49845;47.130;142.766;2024-02-21T06:49:18;29.85;;;10.60;;
63699;SDS011;49845;47.130;142.766;2024-02-21T06:51:49;21.75;;;7.53;;
63699;SDS011;49845;47.130;142.766;2024-02-21T06:54:19;7.97;;;3.67;;
63699;SDS011;49845;47.130;142.766;2024-02-21T06:56:49;12.48;;;6.00;;
63699;SDS011;49845;47.130;142.766;2024-02-21T06:59:22;11.40;;;4.97;;
63699;SDS011;49845;47.130;142.766;2024-02-21T07:01:53;7.43;;;3.58;;
63699;SDS011;49845;47.130;142.766;2024-02-21T07:04:24;3.25;;;2.22;;
63699;SDS011;49845;47.130;142.766;2024-02-21T07:06:55;3.15;;;1.60;;
63699;SDS011;49845;47.130;142.766;2024-02-21T07:09:25;2.80;;;1.90;;
63699;SDS011;49845;47.130;142.766;2024-02-21T07:11:56;3.28;;;1.90;;
63699;SDS011;49845;47.130;142.766;2024-02-21T07:14:29;6.22;;;2.38;;
63699;SDS011;49845;47.130;142.766;2024-02-21T07:17:01;2.83;;;2.13;;
63699;SDS011;49845;47.130;142.766;2024-02-21T07:19:32;6.60;;;2.92;;
63699;SDS011;49845;47.130;142.766;2024-02-21T07:22:03;4.25;;;2.53;;
63699;SDS011;49845;47.130;142.766;2024-02-21T07:24:33;4.72;;;2.95;;
63699;SDS011;49845;47.130;142.766;2024-02-21T07:27:05;10.55;;;3.40;;
63699;SDS011;49845;47.130;142.766;2024-02-21T07:29:37;5.72;;;2.80;;
63699;SDS011;49845;47.130;142.766;2024-02-21T07:32:07;4.70;;;3.00;;
63699;SDS011;49845;47.130;142.766;2024-02-21T07:34:38;5.05;;;2.58;;
63699;SDS011;49845;47.130;142.766;2024-02-21T07:37:08;3.97;;;2.35;;
63699;SDS011;49845;47.130;142.766;2024-02-21T07:39:39;5.28;;;2.45;;
63699;SDS011;49845;47.130;142.766;2024-02-21T07:42:09;5.50;;;2.65;;
63699;SDS011;49845;47.130;142.766;2024-02-21T07:44:41;5.13;;;2.60;;
63699;SDS011;49845;47.130;142.766;2024-02-21T07:47:12;3.17;;;2.50;;
63699;SDS011;49845;47.130;142.766;2024-02-21T07:49:43;5.25;;;2.63;;
63699;SDS011;49845;47.130;142.766;2024-02-21T07:52:16;6.88;;;2.63;;
63699;SDS011;49845;47.130;142.766;2024-02-21T07:54:47;6.40;;;2.30;;
63699;SDS011;49845;47.130;142.766;2024-02-21T07:57:17;3.80;;;2.47;;
63699;SDS011;49845;47.130;142.766;2024-02-21T07:59:50;4.72;;;2.88;;
63699;SDS011;49845;47.130;142.766;2024-02-21T08:02:20;8.40;;;3.90;;
63699;SDS011;49845;47.130;142.766;2024-02-21T08:04:51;3.58;;;3.22;;
63699;SDS011;49845;47.130;142.766;2024-02-21T08:07:21;6.75;;;3.63;;
63699;SDS011;49845;47.130;142.766;2024-02-21T08:09:52;3.83;;;2.55;;
63699;SDS011;49845;47.130;142.766;2024-02-21T08:12:22;12.57;;;6.55;;
63699;SDS011;49845;47.130;142.766;2024-02-21T08:14:55;7.05;;;3.50;;
63699;SDS011;49845;47.130;142.766;2024-02-21T08:17:25;3.45;;;2.90;;
63699;SDS011;49845;47.130;142.766;2024-02-21T08:19:56;6.30;;;3.13;;
63699;SDS011;49845;47.130;142.766;2024-02-21T08:22:27;4.53;;;2.90;;
63699;SDS011;49845;47.130;142.766;2024-02-21T08:24:57;5.93;;;3.05;;
63699;SDS011;49845;47.130;142.766;2024-02-21T08:27:28;5.88;;;3.22;;
63699;SDS011;49845;47.130;142.766;2024-02-21T08:30:00;4.35;;;3.20;;
63699;SDS011;49845;47.130;142.766;2024-02-21T08:32:31;6.32;;;3.28;;
63699;SDS011;49845;47.130;142.766;2024-02-21T08:35:03;8.07;;;3.35;;
63699;SDS011;49845;47.130;142.766;2024-02-21T08:37:35;5.72;;;3.20;;
63699;SDS011;49845;47.130;142.766;2024-02-21T08:40:06;8.02;;;3.40;;
63699;SDS011;49845;47.130;142.766;2024-02-21T08:42:38;40.67;;;13.25;;
63699;SDS011;49845;47.130;142.766;2024-02-21T08:45:11;327.80;;;66.90;;
63699;SDS011;49845;47.130;142.766;2024-02-21T08:47:41;200.48;;;43.00;;
63699;SDS011;49845;47.130;142.766;2024-02-21T08:50:12;260.70;;;55.40;;
63699;SDS011;49845;47.130;142.766;2024-02-21T08:52:54;147.82;;;33.75;;
63699;SDS011;49845;47.130;142.766;2024-02-21T08:55:25;82.43;;;23.20;;
63699;SDS011;49845;47.130;142.766;2024-02-21T08:57:56;46.97;;;20.10;;
63699;SDS011;49845;47.130;142.766;2024-02-21T09:00:28;12.13;;;8.82;;
63699;SDS011;49845;47.130;142.766;2024-02-21T09:02:58;9.55;;;7.57;;
63699;SDS011;49845;47.130;142.766;2024-02-21T09:05:29;7.55;;;5.25;;
63699;SDS011;49845;47.130;142.766;2024-02-21T09:07:59;4.68;;;3.88;;
63699;SDS011;49845;47.130;142.766;2024-02-21T09:10:30;7.30;;;5.97;;
63699;SDS011;49845;47.130;142.766;2024-02-21T09:13:01;8.50;;;6.43;;
63699;SDS011;49845;47.130;142.766;2024-02-21T09:15:33;10.05;;;8.63;;
63699;SDS011;49845;47.130;142.766;2024-02-21T09:18:04;66.53;;;21.45;;
63699;SDS011;49845;47.130;142.766;2024-02-21T09:20:35;76.55;;;21.38;;
63699;SDS011;49845;47.130;142.766;2024-02-21T09:23:05;110.32;;;26.38;;
63699;SDS011;49845;47.130;142.766;2024-02-21T09:25:36;153.77;;;31.70;;
63699;SDS011;49845;47.130;142.766;2024-02-21T09:28:07;83.95;;;19.58;;
63699;SDS011;49845;47.130;142.766;2024-02-21T09:30:39;47.40;;;12.90;;
63699;SDS011;49845;47.130;142.766;2024-02-21T09:33:10;66.68;;;19.08;;
63699;SDS011;49845;47.130;142.766;2024-02-21T09:35:56;18.73;;;8.45;;
63699;SDS011;49845;47.130;142.766;2024-02-21T09:38:27;7.40;;;4.38;;
63699;SDS011;49845;47.130;142.766;2024-02-21T09:40:58;4.88;;;3.80;;
63699;SDS011;49845;47.130;142.766;2024-02-21T09:43:34;4.03;;;3.60;;
63699;SDS011;49845;47.130;142.766;2024-02-21T09:46:08;3.88;;;3.58;;
63699;SDS011;49845;47.130;142.766;2024-02-21T09:51:24;7.00;;;5.18;;
63699;SDS011;49845;47.130;142.766;2024-02-21T09:53:57;8.73;;;4.28;;
63699;SDS011;49845;47.130;142.766;2024-02-21T09:56:42;3.55;;;3.28;;
63699;SDS011;49845;47.130;142.766;2024-02-21T09:59:14;7.20;;;4.03;;
63699;SDS011;49845;47.130;142.766;2024-02-21T10:01:47;5.22;;;3.80;;
63699;SDS011;49845;47.130;142.766;2024-02-21T10:04:20;4.95;;;3.67;;
63699;SDS011;49845;47.130;142.766;2024-02-21T10:06:50;4.40;;;3.92;;
63699;SDS011;49845;47.130;142.766;2024-02-21T10:09:21;5.57;;;3.83;;
63699;SDS011;49845;47.130;142.766;2024-02-21T10:11:56;9.05;;;5.53;;
63699;SDS011;49845;47.130;142.766;2024-02-21T10:14:37;27.75;;;12.25;;
63699;SDS011;49845;47.130;142.766;2024-02-21T10:17:14;35.17;;;14.80;;
63699;SDS011;49845;47.130;142.766;2024-02-21T10:19:46;28.58;;;11.32;;
63699;SDS011;49845;47.130;142.766;2024-02-21T10:22:18;36.88;;;15.35;;
63699;SDS011;49845;47.130;142.766;2024-02-21T10:24:49;132.02;;;51.90;;
63699;SDS011;49845;47.130;142.766;2024-02-21T10:27:23;39.33;;;17.95;;
63699;SDS011;49845;47.130;142.766;2024-02-21T10:29:53;12.35;;;5.95;;
63699;SDS011;49845;47.130;142.766;2024-02-21T10:32:26;18.35;;;8.10;;
63699;SDS011;49845;47.130;142.766;2024-02-21T10:35:01;22.88;;;8.90;;
63699;SDS011;49845;47.130;142.766;2024-02-21T10:37:32;22.95;;;9.85;;
63699;SDS011;49845;47.130;142.766;2024-02-21T10:40:03;23.63;;;9.90;;
63699;SDS011;49845;47.130;142.766;2024-02-21T10:42:35;31.90;;;11.07;;
63699;SDS011;49845;47.130;142.766;2024-02-21T10:45:07;28.95;;;12.15;;
63699;SDS011;49845;47.130;142.766;2024-02-21T10:47:44;28.23;;;12.00;;
63699;SDS011;49845;47.130;142.766;2024-02-21T10:50:23;32.67;;;12.75;;
63699;SDS011;49845;47.130;142.766;2024-02-21T10:52:59;32.97;;;12.50;;
63699;SDS011;49845;47.130;142.766;2024-02-21T10:55:38;29.27;;;11.07;;
63699;SDS011;49845;47.130;142.766;2024-02-21T10:58:17;33.97;;;12.73;;
63699;SDS011;49845;47.130;142.766;2024-02-21T11:00:49;64.63;;;24.35;;
63699;SDS011;49845;47.130;142.766;2024-02-21T11:03:22;50.50;;;20.38;;
63699;SDS011;49845;47.130;142.766;2024-02-21T11:05:54;53.33;;;21.40;;
63699;SDS011;49845;47.130;142.766;2024-02-21T11:08:25;44.53;;;19.10;;
63699;SDS011;49845;47.130;142.766;2024-02-21T11:10:56;45.03;;;18.40;;
63699;SDS011;49845;47.130;142.766;2024-02-21T11:13:34;45.92;;;18.52;;
63699;SDS011;49845;47.130;142.766;2024-02-21T11:16:06;40.58;;;15.57;;
63699;SDS011;49845;47.130;142.766;2024-02-21T11:18:40;34.72;;;15.57;;
63699;SDS011;49845;47.130;142.766;2024-02-21T11:21:10;39.85;;;17.60;;
63699;SDS011;49845;47.130;142.766;2024-02-21T11:23:41;40.40;;;16.85;;
63699;SDS011;49845;47.130;142.766;2024-02-21T11:26:17;36.05;;;16.98;;
63699;SDS011;49845;47.130;142.766;2024-02-21T11:28:56;35.60;;;15.40;;
63699;SDS011;49845;47.130;142.766;2024-02-21T11:31:27;28.25;;;11.98;;
63699;SDS011;49845;47.130;142.766;2024-02-21T11:34:11;23.58;;;10.82;;
63699;SDS011;49845;47.130;142.766;2024-02-21T11:36:49;18.83;;;9.38;;
63699;SDS011;49845;47.130;142.766;2024-02-21T11:39:21;16.90;;;7.25;;
63699;SDS011;49845;47.130;142.766;2024-02-21T11:42:01;12.35;;;6.65;;
63699;SDS011;49845;47.130;142.766;2024-02-21T11:44:33;11.95;;;5.25;;
63699;SDS011;49845;47.130;142.766;2024-02-21T11:47:05;8.23;;;4.60;;
63699;SDS011;49845;47.130;142.766;2024-02-21T11:49:38;7.95;;;4.25;;
63699;SDS011;49845;47.130;142.766;2024-02-21T11:52:17;9.52;;;4.80;;
63699;SDS011;49845;47.130;142.766;2024-02-21T11:54:48;5.35;;;3.53;;
63699;SDS011;49845;47.130;142.766;2024-02-21T11:57:19;5.88;;;3.97;;
63699;SDS011;49845;47.130;142.766;2024-02-21T11:59:50;7.20;;;4.07;;
63699;SDS011;49845;47.130;142.766;2024-02-21T12:02:26;4.57;;;2.80;;
63699;SDS011;49845;47.130;142.766;2024-02-21T12:04:58;35.97;;;13.50;;
63699;SDS011;49845;47.130;142.766;2024-02-21T12:07:29;98.22;;;34.83;;
63699;SDS011;49845;47.130;142.766;2024-02-21T12:10:00;60.75;;;24.30;;
63699;SDS011;49845;47.130;142.766;2024-02-21T12:12:30;23.15;;;10.32;;
63699;SDS011;49845;47.130;142.766;2024-02-21T12:15:04;6.97;;;4.45;;
63699;SDS011;49845;47.130;142.766;2024-02-21T12:17:35;4.93;;;3.10;;
63699;SDS011;49845;47.130;142.766;2024-02-21T12:20:08;3.50;;;2.85;;
63699;SDS011;49845;47.130;142.766;2024-02-21T12:22:41;6.60;;;4.18;;
63699;SDS011;49845;47.130;142.766;2024-02-21T12:25:18;6.50;;;3.70;;
63699;SDS011;49845;47.130;142.766;2024-02-21T12:27:50;15.25;;;6.88;;
63699;SDS011;49845;47.130;142.766;2024-02-21T12:30:21;12.60;;;4.50;;
63699;SDS011;49845;47.130;142.766;2024-02-21T12:32:51;8.38;;;4.85;;
63699;SDS011;49845;47.130;142.766;2024-02-21T12:35:24;20.15;;;11.45;;
63699;SDS011;49845;47.130;142.766;2024-02-21T12:37:55;22.95;;;10.68;;
63699;SDS011;49845;47.130;142.766;2024-02-21T12:40:25;30.35;;;12.80;;
63699;SDS011;49845;47.130;142.766;2024-02-21T12:43:00;25.08;;;11.52;;
63699;SDS011;49845;47.130;142.766;2024-02-21T12:45:31;18.58;;;8.93;;
63699;SDS011;49845;47.130;142.766;2024-02-21T12:48:02;12.10;;;5.60;;
63699;SDS011;49845;47.130;142.766;2024-02-21T12:50:35;10.63;;;4.57;;
63699;SDS011;49845;47.130;142.766;2024-02-21T12:53:05;9.00;;;5.28;;
63699;SDS011;49845;47.130;142.766;2024-02-21T12:55:48;10.75;;;5.68;;
63699;SDS011;49845;47.130;142.766;2024-02-21T12:58:19;6.65;;;4.85;;
63699;SDS011;49845;47.130;142.766;2024-02-21T13:00:50;5.78;;;4.35;;
63699;SDS011;49845;47.130;142.766;2024-02-21T13:03:21;5.68;;;3.53;;
63699;SDS011;49845;47.130;142.766;2024-02-21T13:05:53;10.82;;;4.22;;
63699;SDS011;49845;47.130;142.766;2024-02-21T13:08:24;16.27;;;5.85;;
63699;SDS011;49845;47.130;142.766;2024-02-21T13:10:54;16.92;;;6.05;;
63699;SDS011;49845;47.130;142.766;2024-02-21T13:13:25;14.35;;;5.40;;
63699;SDS011;49845;47.130;142.766;2024-02-21T13:15:55;18.00;;;6.18;;
63699;SDS011;49845;47.130;142.766;2024-02-21T13:18:26;19.73;;;7.40;;
63699;SDS011;49845;47.130;142.766;2024-02-21T13:20:58;21.67;;;8.00;;
63699;SDS011;49845;47.130;142.766;2024-02-21T13:23:29;24.55;;;8.48;;
63699;SDS011;49845;47.130;142.766;2024-02-21T13:25:59;37.42;;;11.50;;
63699;SDS011;49845;47.130;142.766;2024-02-21T13:28:30;37.55;;;10.82;;
63699;SDS011;49845;47.130;142.766;2024-02-21T13:31:00;20.50;;;7.95;;
63699;SDS011;49845;47.130;142.766;2024-02-21T13:33:31;24.23;;;8.90;;
63699;SDS011;49845;47.130;142.766;2024-02-21T13:36:04;33.42;;;12.57;;
63699;SDS011;49845;47.130;142.766;2024-02-21T13:38:34;23.90;;;8.43;;
63699;SDS011;49845;47.130;142.766;2024-02-21T13:41:06;24.15;;;7.32;;
63699;SDS011;49845;47.130;142.766;2024-02-21T13:43:36;16.20;;;6.78;;
63699;SDS011;49845;47.130;142.766;2024-02-21T13:46:07;15.38;;;6.22;;
63699;SDS011;49845;47.130;142.766;2024-02-21T13:48:38;9.32;;;5.13;;
63699;SDS011;49845;47.130;142.766;2024-02-21T13:51:11;14.35;;;5.88;;
63699;SDS011;49845;47.130;142.766;2024-02-21T13:53:42;36.10;;;12.20;;
63699;SDS011;49845;47.130;142.766;2024-02-21T13:56:12;10.30;;;5.18;;
63699;SDS011;49845;47.130;142.766;2024-02-21T13:58:43;5.35;;;3.42;;
63699;SDS011;49845;47.130;142.766;2024-02-21T14:01:13;6.35;;;3.60;;
63699;SDS011;49845;47.130;142.766;2024-02-21T14:03:44;5.68;;;3.50;;
63699;SDS011;49845;47.130;142.766;2024-02-21T14:06:16;12.93;;;5.18;;
63699;SDS011;49845;47.130;142.766;2024-02-21T14:08:47;9.02;;;4.50;;
63699;SDS011;49845;47.130;142.766;2024-02-21T14:11:17;4.90;;;3.30;;
63699;SDS011;49845;47.130;142.766;2024-02-21T14:13:48;5.05;;;3.38;;
63699;SDS011;49845;47.130;142.766;2024-02-21T14:16:19;4.25;;;3.40;;
63699;SDS011;49845;47.130;142.766;2024-02-21T14:18:49;5.50;;;4.18;;
63699;SDS011;49845;47.130;142.766;2024-02-21T14:21:23;5.25;;;3.10;;
63699;SDS011;49845;47.130;142.766;2024-02-21T14:23:54;6.45;;;2.85;;
63699;SDS011;49845;47.130;142.766;2024-02-21T14:26:25;9.63;;;4.45;;
63699;SDS011;49845;47.130;142.766;2024-02-21T14:28:57;10.43;;;4.43;;
63699;SDS011;49845;47.130;142.766;2024-02-21T14:31:29;15.45;;;6.10;;
63699;SDS011;49845;47.130;142.766;2024-02-21T14:34:00;13.50;;;7.68;;
63699;SDS011;49845;47.130;142.766;2024-02-21T14:36:33;5.65;;;4.18;;
63699;SDS011;49845;47.130;142.766;2024-02-21T14:39:03;3.85;;;3.22;;
63699;SDS011;49845;47.130;142.766;2024-02-21T14:41:34;4.60;;;3.10;;
63699;SDS011;49845;47.130;142.766;2024-02-21T14:44:05;3.92;;;2.70;;
63699;SDS011;49845;47.130;142.766;2024-02-21T14:46:37;2.88;;;2.45;;